createdAt,value
2019-02-03T00:01:39.724Z,28.85
2019-02-03T00:04:07.942Z,30.02
2019-02-03T00:06:36.564Z,29.57
2019-02-03T00:09:10.714Z,25.85
2019-02-03T00:11:37.869Z,30.15
2019-02-03T00:14:05.121Z,33.08
2019-02-03T00:16:32.753Z,30.95
2019-02-03T00:19:00.529Z,32.40
2019-02-03T00:21:27.625Z,31.95
2019-02-03T00:23:54.651Z,35.35
2019-02-03T00:26:22.157Z,62.17
2019-02-03T00:28:49.224Z,61.65
2019-02-03T00:31:17.733Z,31.95
2019-02-03T00:33:44.495Z,32.88
2019-02-03T00:36:11.267Z,44.23
2019-02-03T00:38:38.723Z,37.83
2019-02-03T00:41:06.324Z,35.80
2019-02-03T00:43:33.333Z,34.67
2019-02-03T00:46:00.435Z,34.45
2019-02-03T00:48:27.101Z,35.83
2019-02-03T00:50:54.167Z,36.33
2019-02-03T00:53:21.872Z,30.50
2019-02-03T00:55:48.745Z,36.03
2019-02-03T00:58:15.993Z,36.60
2019-02-03T01:00:43.193Z,39.88
2019-02-03T01:03:10.587Z,49.63
2019-02-03T01:05:38.067Z,37.33
2019-02-03T01:08:06.602Z,44.93
2019-02-03T01:10:33.754Z,37.50
2019-02-03T01:13:01.752Z,41.02
2019-02-03T01:15:28.521Z,35.78
2019-02-03T01:17:55.410Z,37.65
2019-02-03T01:20:22.539Z,40.28
2019-02-03T01:22:50.001Z,36.58
2019-02-03T01:25:17.185Z,38.65
2019-02-03T01:27:44.703Z,37.90
2019-02-03T01:30:17.451Z,33.35
2019-02-03T01:32:45.775Z,32.38
2019-02-03T01:35:13.200Z,34.18
2019-02-03T01:37:41.024Z,33.58
2019-02-03T01:40:12.017Z,35.50
2019-02-03T01:42:39.486Z,34.38
2019-02-03T01:45:08.632Z,34.88
2019-02-03T01:47:37.418Z,36.73
2019-02-03T01:50:05.919Z,32.85
2019-02-03T01:52:33.314Z,31.97
2019-02-03T01:55:00.953Z,34.20
2019-02-03T01:57:28.142Z,33.58
2019-02-03T01:59:55.463Z,32.55
2019-02-03T02:02:23.247Z,34.65
2019-02-03T02:04:50.233Z,35.05
2019-02-03T02:07:17.175Z,34.83
2019-02-03T02:09:44.262Z,32.48
2019-02-03T02:12:11.047Z,33.90
2019-02-03T02:14:37.740Z,33.35
2019-02-03T02:17:05.062Z,34.50
2019-02-03T02:19:32.766Z,32.38
2019-02-03T02:22:00.545Z,33.30
2019-02-03T02:24:27.696Z,31.87
2019-02-03T02:26:55.065Z,32.20
2019-02-03T02:29:21.848Z,33.85
2019-02-03T02:31:49.226Z,35.50
2019-02-03T02:34:15.925Z,25.05
2019-02-03T02:36:42.959Z,33.40
2019-02-03T02:39:11.203Z,35.40
2019-02-03T02:41:38.445Z,34.27
2019-02-03T02:44:06.075Z,28.80
2019-02-03T02:46:32.856Z,26.82
2019-02-03T02:48:59.798Z,27.17
2019-02-03T02:51:27.425Z,28.83
2019-02-03T02:53:54.221Z,30.00
2019-02-03T02:56:21.458Z,28.17
2019-02-03T02:58:48.614Z,31.68
2019-02-03T03:01:15.706Z,30.37
2019-02-03T03:03:43.494Z,29.67
2019-02-03T03:06:10.361Z,30.30
2019-02-03T03:08:37.511Z,27.80
2019-02-03T03:11:54.541Z,30.57
2019-02-03T03:17:17.916Z,32.78
2019-02-03T03:19:45.349Z,26.35
2019-02-03T03:22:12.106Z,29.50
2019-02-03T03:24:38.799Z,28.80
2019-02-03T03:27:07.905Z,28.35
2019-02-03T03:29:34.836Z,28.83
2019-02-03T03:32:02.375Z,28.57
2019-02-03T03:34:29.271Z,30.77
2019-02-03T03:36:56.321Z,27.90
2019-02-03T03:39:23.034Z,28.07
2019-02-03T03:41:49.803Z,28.62
2019-02-03T03:44:17.271Z,26.02
2019-02-03T03:46:44.718Z,26.85
2019-02-03T03:49:11.515Z,24.85
2019-02-03T03:51:39.127Z,26.85
2019-02-03T03:54:06.023Z,27.70
2019-02-03T03:56:33.118Z,25.80
2019-02-03T03:59:00.885Z,26.97
2019-02-03T04:01:29.457Z,26.90
2019-02-03T04:03:56.909Z,28.75
2019-02-03T04:06:24.507Z,25.08
2019-02-03T04:08:51.530Z,18.57
2019-02-03T04:11:18.347Z,26.27
2019-02-03T04:13:45.528Z,22.20
2019-02-03T04:16:13.182Z,17.60
2019-02-03T04:18:40.833Z,24.90
2019-02-03T04:21:07.994Z,23.10
2019-02-03T04:23:35.442Z,26.27
2019-02-03T04:26:02.207Z,26.60
2019-02-03T04:28:28.912Z,25.15
2019-02-03T04:30:56.377Z,24.05
2019-02-03T04:33:23.054Z,23.40
2019-02-03T04:35:49.721Z,24.43
2019-02-03T04:38:16.793Z,25.50
2019-02-03T04:40:44.373Z,22.42
2019-02-03T04:43:11.178Z,25.50
2019-02-03T04:45:38.244Z,24.47
2019-02-03T04:48:05.038Z,22.10
2019-02-03T04:50:35.082Z,21.97
2019-02-03T04:53:02.130Z,21.93
2019-02-03T04:55:29.518Z,21.33
2019-02-03T04:57:56.854Z,13.50
2019-02-03T05:00:24.538Z,17.17
2019-02-03T05:02:52.176Z,19.95
2019-02-03T05:05:20.218Z,19.92
2019-02-03T05:07:50.361Z,22.30
2019-02-03T05:10:18.518Z,17.62
2019-02-03T05:12:46.445Z,22.55
2019-02-03T05:15:16.379Z,21.02
2019-02-03T05:17:43.515Z,22.15
2019-02-03T05:20:12.447Z,19.25
2019-02-03T05:22:39.251Z,18.05
2019-02-03T05:25:08.945Z,13.68
2019-02-03T05:27:36.073Z,20.43
2019-02-03T05:30:05.938Z,18.23
2019-02-03T05:32:32.840Z,18.20
2019-02-03T05:35:00.727Z,20.75
2019-02-03T05:37:27.603Z,10.72
2019-02-03T05:39:55.160Z,19.35
2019-02-03T05:42:23.044Z,20.82
2019-02-03T05:44:50.630Z,18.45
2019-02-03T05:47:18.804Z,19.70
2019-02-03T05:49:45.472Z,18.52
2019-02-03T05:52:12.481Z,16.30
2019-02-03T05:54:39.444Z,18.85
2019-02-03T05:57:06.474Z,19.50
2019-02-03T05:59:33.322Z,17.60
2019-02-03T06:02:01.090Z,20.45
2019-02-03T06:04:28.309Z,19.15
2019-02-03T06:06:55.567Z,13.75
2019-02-03T06:09:22.461Z,19.20
2019-02-03T06:11:49.969Z,18.10
2019-02-03T06:14:16.758Z,17.77
2019-02-03T06:16:43.886Z,17.90
2019-02-03T06:19:11.648Z,16.95
2019-02-03T06:21:39.890Z,16.60
2019-02-03T06:24:06.960Z,18.35
2019-02-03T06:26:34.351Z,17.85
2019-02-03T06:29:01.699Z,18.35
2019-02-03T06:31:28.802Z,16.00
2019-02-03T06:33:55.591Z,18.55
2019-02-03T06:36:23.182Z,16.50
2019-02-03T06:38:52.360Z,18.32
2019-02-03T06:41:19.021Z,17.05
2019-02-03T06:43:46.876Z,17.02
2019-02-03T06:46:31.921Z,15.30
2019-02-03T06:49:02.064Z,13.38
2019-02-03T06:51:29.974Z,15.03
2019-02-03T06:53:57.135Z,14.75
2019-02-03T06:56:24.698Z,16.23
2019-02-03T06:58:52.354Z,17.25
2019-02-03T07:01:19.609Z,16.85
2019-02-03T07:03:46.663Z,16.60
2019-02-03T07:06:13.863Z,16.82
2019-02-03T07:08:41.878Z,17.27
2019-02-03T07:11:09.125Z,16.65
2019-02-03T07:13:35.904Z,16.23
2019-02-03T07:16:02.820Z,17.50
2019-02-03T07:18:29.473Z,16.97
2019-02-03T07:20:56.153Z,15.32
2019-02-03T07:23:23.408Z,16.57
2019-02-03T07:25:50.317Z,18.00
2019-02-03T07:28:17.492Z,16.62
2019-02-03T07:30:45.321Z,18.35
2019-02-03T07:33:12.503Z,18.42
2019-02-03T07:35:40.118Z,15.45
2019-02-03T07:38:06.897Z,15.68
2019-02-03T07:40:34.726Z,14.65
2019-02-03T07:43:01.778Z,17.77
2019-02-03T07:45:28.543Z,16.35
2019-02-03T07:47:56.370Z,17.32
2019-02-03T07:50:23.707Z,17.15
2019-02-03T07:52:51.574Z,17.10
2019-02-03T07:55:18.610Z,16.73
2019-02-03T07:57:46.803Z,8.33
2019-02-03T08:00:14.713Z,15.38
2019-02-03T08:02:41.754Z,15.70
2019-02-03T08:05:08.543Z,16.60
2019-02-03T08:07:35.449Z,15.68
2019-02-03T08:10:03.642Z,16.30
2019-02-03T08:12:31.851Z,15.55
2019-02-03T08:14:59.272Z,15.60
2019-02-03T08:17:26.437Z,15.48
2019-02-03T08:19:54.117Z,12.43
2019-02-03T08:22:21.586Z,16.93
2019-02-03T08:24:48.744Z,15.15
2019-02-03T08:27:15.869Z,16.60
2019-02-03T08:29:42.786Z,16.87
2019-02-03T08:32:10.723Z,16.55
2019-02-03T08:34:38.122Z,14.07
2019-02-03T08:37:05.461Z,15.15
2019-02-03T08:39:32.538Z,14.75
2019-02-03T08:41:59.214Z,15.30
2019-02-03T08:44:27.627Z,15.00
2019-02-03T08:46:54.918Z,14.07
2019-02-03T08:49:23.137Z,15.98
2019-02-03T08:51:51.090Z,14.18
2019-02-03T08:54:20.647Z,14.58
2019-02-03T08:56:49.875Z,16.12
2019-02-03T08:59:17.847Z,15.05
2019-02-03T09:01:46.522Z,15.65
2019-02-03T09:04:15.183Z,15.43
2019-02-03T09:06:43.781Z,16.50
2019-02-03T09:09:11.804Z,8.88
2019-02-03T09:11:39.694Z,15.45
2019-02-03T09:14:17.728Z,14.10
2019-02-03T09:16:55.835Z,14.60
2019-02-03T09:19:25.755Z,11.20
2019-02-03T09:21:56.917Z,6.92
2019-02-03T09:24:24.394Z,8.73
2019-02-03T09:26:53.002Z,12.73
2019-02-03T09:29:20.186Z,13.13
2019-02-03T09:31:47.790Z,14.13
2019-02-03T09:34:15.403Z,12.68
2019-02-03T09:36:42.415Z,15.30
2019-02-03T09:40:38.117Z,13.48
2019-02-03T09:46:45.071Z,10.05
2019-02-03T09:49:14.110Z,10.63
2019-02-03T09:51:40.979Z,11.20
2019-02-03T09:54:08.677Z,10.10
2019-02-03T09:56:35.929Z,10.05
2019-02-03T09:59:03.993Z,9.75
2019-02-03T10:01:32.081Z,9.03
2019-02-03T10:03:59.728Z,6.35
2019-02-03T10:06:26.793Z,7.33
2019-02-03T10:08:54.330Z,9.50
2019-02-03T10:11:23.037Z,8.78
2019-02-03T10:13:49.875Z,8.18
2019-02-03T10:16:16.658Z,11.83
2019-02-03T10:18:44.897Z,9.10
2019-02-03T10:21:12.732Z,8.90
2019-02-03T10:23:41.426Z,8.35
2019-02-03T10:26:08.417Z,17.82
2019-02-03T10:28:36.749Z,16.90
2019-02-03T10:31:03.541Z,10.93
2019-02-03T10:33:30.800Z,8.10
2019-02-03T10:35:57.548Z,6.62
2019-02-03T10:38:24.918Z,6.58
2019-02-03T10:40:53.518Z,7.30
2019-02-03T10:43:21.505Z,6.83
2019-02-03T10:45:48.937Z,7.50
2019-02-03T10:48:16.501Z,6.00
2019-02-03T10:50:43.675Z,6.15
2019-02-03T10:53:10.851Z,6.87
2019-02-03T10:55:37.748Z,5.17
2019-02-03T10:58:05.497Z,6.00
2019-02-03T11:00:33.898Z,4.83
2019-02-03T11:03:01.461Z,6.00
2019-02-03T11:05:31.410Z,4.83
2019-02-03T11:08:00.084Z,5.10
2019-02-03T11:10:27.749Z,4.87
2019-02-03T11:12:55.475Z,6.53
2019-02-03T11:15:23.028Z,5.55
2019-02-03T11:17:50.490Z,5.42
2019-02-03T11:20:22.443Z,4.30
2019-02-03T11:22:50.121Z,5.35
2019-02-03T11:25:18.744Z,5.45
2019-02-03T11:27:46.973Z,5.70
2019-02-03T11:30:16.759Z,5.00
2019-02-03T11:32:44.109Z,5.25
2019-02-03T11:35:12.728Z,4.70
2019-02-03T11:37:40.583Z,5.05
2019-02-03T11:40:10.554Z,4.83
2019-02-03T11:42:37.647Z,5.00
2019-02-03T11:45:05.831Z,5.17
2019-02-03T11:47:33.409Z,4.95
2019-02-03T11:50:00.395Z,2.67
2019-02-03T11:52:27.816Z,4.97
2019-02-03T11:54:55.545Z,8.48
2019-02-03T11:57:23.423Z,5.30
2019-02-03T11:59:50.480Z,5.70
2019-02-03T12:02:17.808Z,5.47
2019-02-03T12:04:44.992Z,6.72
2019-02-03T12:07:11.991Z,4.92
2019-02-03T12:09:38.697Z,5.42
2019-02-03T12:12:05.941Z,5.58
2019-02-03T12:14:32.642Z,4.65
2019-02-03T12:17:08.839Z,5.00
2019-02-03T12:19:36.669Z,3.90
2019-02-03T12:22:04.171Z,5.75
2019-02-03T12:24:31.293Z,4.37
2019-02-03T12:26:58.844Z,5.15
2019-02-03T12:29:28.543Z,7.17
2019-02-03T12:31:54.679Z,3.87
2019-02-03T12:34:21.739Z,5.55
2019-02-03T12:36:49.488Z,5.00
2019-02-03T12:39:17.248Z,4.87
2019-02-03T12:41:44.331Z,5.03
2019-02-03T12:44:11.165Z,5.78
2019-02-03T12:46:38.935Z,5.60
2019-02-03T12:49:05.863Z,5.85
2019-02-03T12:51:32.573Z,4.97
2019-02-03T12:54:00.458Z,5.58
2019-02-03T12:56:29.041Z,5.22
2019-02-03T12:58:55.961Z,4.40
2019-02-03T13:01:23.026Z,4.47
2019-02-03T13:03:49.803Z,4.45
2019-02-03T13:06:17.741Z,5.35
2019-02-03T13:08:44.886Z,5.30
2019-02-03T13:11:12.552Z,5.30
2019-02-03T13:13:39.893Z,4.37
2019-02-03T13:16:07.059Z,5.10
2019-02-03T13:18:34.229Z,4.83
2019-02-03T13:21:01.451Z,5.00
2019-02-03T13:23:28.974Z,4.53
2019-02-03T13:25:56.277Z,4.90
2019-02-03T13:28:23.188Z,4.23
2019-02-03T13:30:50.457Z,4.07
2019-02-03T13:33:17.919Z,4.57
2019-02-03T13:35:44.800Z,4.90
2019-02-03T13:38:11.833Z,5.43
2019-02-03T13:40:41.688Z,5.20
2019-02-03T13:43:09.488Z,4.90
2019-02-03T13:45:38.658Z,3.93
2019-02-03T13:48:06.869Z,4.67
2019-02-03T13:50:34.529Z,3.97
2019-02-03T13:53:01.766Z,2.37
2019-02-03T13:55:28.842Z,4.30
2019-02-03T13:57:56.160Z,4.37
2019-02-03T14:00:28.581Z,4.10
2019-02-03T14:02:55.530Z,5.47
2019-02-03T14:05:22.956Z,5.20
2019-02-03T14:07:49.901Z,4.67
2019-02-03T14:10:28.701Z,4.80
2019-02-03T14:12:57.716Z,5.07
2019-02-03T14:15:25.006Z,4.07
2019-02-03T14:17:53.114Z,4.47
2019-02-03T14:20:22.706Z,8.90
2019-02-03T14:22:50.826Z,4.60
2019-02-03T14:25:19.110Z,7.00
2019-02-03T14:27:46.655Z,5.50
2019-02-03T14:30:40.872Z,5.60
2019-02-03T14:33:07.510Z,4.30
2019-02-03T14:35:34.717Z,5.97
2019-02-03T14:38:03.215Z,4.70
2019-02-03T14:40:31.376Z,4.60
2019-02-03T14:43:02.005Z,4.37
2019-02-03T14:45:27.919Z,4.60
2019-02-03T14:47:55.083Z,4.97
2019-02-03T14:50:21.950Z,5.60
2019-02-03T14:52:49.985Z,5.20
2019-02-03T14:55:19.642Z,6.45
2019-02-03T14:57:47.982Z,5.80
2019-02-03T15:00:23.863Z,10.80
2019-02-03T15:02:51.362Z,6.85
2019-02-03T15:05:20.179Z,6.83
2019-02-03T15:07:48.251Z,6.28
2019-02-03T15:10:16.421Z,6.15
2019-02-03T15:12:43.935Z,7.90
2019-02-03T15:15:12.738Z,7.30
2019-02-03T15:17:43.352Z,8.65
2019-02-03T15:20:13.927Z,7.10
2019-02-03T15:22:51.352Z,93.97
2019-02-03T15:25:18.492Z,34.07
2019-02-03T15:27:45.526Z,10.78
2019-02-03T15:30:21.695Z,28.60
2019-02-03T15:32:49.219Z,11.10
2019-02-03T15:35:16.548Z,7.90
2019-02-03T15:37:43.688Z,15.00
2019-02-03T15:40:12.171Z,9.23
2019-02-03T15:42:39.363Z,17.93
2019-02-03T15:45:08.219Z,10.70
2019-02-03T15:47:36.010Z,12.60
2019-02-03T15:50:05.294Z,10.35
2019-02-03T15:52:32.874Z,7.92
2019-02-03T15:55:00.307Z,5.55
2019-02-03T15:57:30.499Z,6.25
2019-02-03T15:59:58.049Z,6.22
2019-02-03T16:02:25.689Z,7.20
2019-02-03T16:04:52.914Z,5.90
2019-02-03T16:07:19.579Z,5.58
2019-02-03T16:09:46.946Z,4.95
2019-02-03T16:12:14.243Z,5.92
2019-02-03T16:14:41.651Z,8.25
2019-02-03T16:17:09.749Z,5.83
2019-02-03T16:19:37.986Z,4.83
2019-02-03T16:22:05.250Z,4.50
2019-02-03T16:24:32.487Z,6.20
2019-02-03T16:27:00.232Z,5.40
2019-02-03T16:29:27.289Z,5.65
2019-02-03T16:31:54.234Z,7.80
2019-02-03T16:34:20.922Z,6.12
2019-02-03T16:36:48.129Z,5.28
2019-02-03T16:39:15.032Z,4.62
2019-02-03T16:41:41.933Z,4.60
2019-02-03T16:44:09.521Z,4.75
2019-02-03T16:46:58.570Z,4.42
2019-02-03T16:49:26.578Z,4.55
2019-02-03T16:51:55.975Z,4.70
2019-02-03T16:54:23.575Z,5.40
2019-02-03T16:56:59.603Z,4.22
2019-02-03T16:59:29.670Z,5.15
2019-02-03T17:01:56.878Z,5.10
2019-02-03T17:04:24.693Z,5.25
2019-02-03T17:06:52.005Z,5.50
2019-02-03T17:09:19.578Z,4.70
2019-02-03T17:11:49.402Z,5.25
2019-02-03T17:14:16.500Z,4.28
2019-02-03T17:16:43.982Z,4.62
2019-02-03T17:19:10.661Z,5.08
2019-02-03T17:21:37.873Z,4.33
2019-02-03T17:24:05.840Z,4.72
2019-02-03T17:26:33.839Z,3.92
2019-02-03T17:29:01.746Z,4.50
2019-02-03T17:31:28.759Z,4.85
2019-02-03T17:33:56.382Z,4.75
2019-02-03T17:36:23.725Z,4.65
2019-02-03T17:38:53.895Z,5.45
2019-02-03T17:41:20.709Z,4.10
2019-02-03T17:43:47.502Z,3.70
2019-02-03T17:46:15.181Z,4.40
2019-02-03T17:48:43.706Z,4.35
2019-02-03T17:51:11.005Z,4.47
2019-02-03T17:53:37.780Z,4.05
2019-02-03T17:56:05.342Z,4.30
2019-02-03T17:58:32.921Z,4.15
2019-02-03T18:01:03.042Z,4.50
2019-02-03T18:03:30.478Z,4.20
2019-02-03T18:05:58.149Z,5.50
2019-02-03T18:08:25.372Z,6.60
2019-02-03T18:10:52.254Z,3.40
2019-02-03T18:13:20.088Z,4.05
2019-02-03T18:15:47.306Z,3.90
2019-02-03T18:18:13.974Z,4.58
2019-02-03T18:20:40.676Z,4.00
2019-02-03T18:23:08.222Z,3.40
2019-02-03T18:25:36.057Z,3.55
2019-02-03T18:28:04.007Z,2.47
2019-02-03T18:30:31.863Z,3.42
2019-02-03T18:32:59.638Z,3.25
2019-02-03T18:35:26.314Z,2.42
2019-02-03T18:37:54.244Z,3.62
2019-02-03T18:40:21.498Z,3.62
2019-02-03T18:42:49.378Z,3.67
2019-02-03T18:45:24.459Z,3.37
2019-02-03T18:47:51.450Z,3.62
2019-02-03T18:50:19.965Z,3.52
2019-02-03T18:52:48.902Z,4.50
2019-02-03T18:55:19.803Z,13.72
2019-02-03T18:57:46.907Z,3.50
2019-02-03T19:00:16.906Z,4.03
2019-02-03T19:02:44.107Z,3.50
2019-02-03T19:05:13.378Z,4.37
2019-02-03T19:07:41.038Z,4.05
2019-02-03T19:10:12.319Z,6.00
2019-02-03T19:12:39.839Z,2.90
2019-02-03T19:15:08.854Z,3.87
2019-02-03T19:17:36.768Z,4.22
2019-02-03T19:20:06.327Z,5.28
2019-02-03T19:22:33.953Z,3.15
2019-02-03T19:25:01.963Z,4.12
2019-02-03T19:27:29.267Z,3.20
2019-02-03T19:29:56.074Z,3.02
2019-02-03T19:32:23.128Z,3.45
2019-02-03T19:34:50.943Z,3.85
2019-02-03T19:37:18.907Z,3.42
2019-02-03T19:39:46.149Z,3.17
2019-02-03T19:42:13.227Z,3.70
2019-02-03T19:44:40.980Z,4.20
2019-02-03T19:47:08.479Z,4.03
2019-02-03T19:49:46.255Z,4.17
2019-02-03T19:52:06.837Z,3.55
2019-02-03T19:54:34.746Z,3.70
2019-02-03T19:57:02.305Z,2.77
2019-02-03T19:59:29.259Z,3.72
2019-02-03T20:01:57.165Z,3.15
2019-02-03T20:04:24.727Z,4.10
2019-02-03T20:06:51.969Z,3.50
2019-02-03T20:09:19.914Z,4.53
2019-02-03T20:11:46.999Z,3.05
2019-02-03T20:14:14.763Z,3.77
2019-02-03T20:16:42.419Z,12.45
2019-02-03T20:19:09.668Z,6.03
2019-02-03T20:21:37.053Z,3.15
2019-02-03T20:24:04.629Z,3.25
2019-02-03T20:26:32.603Z,4.40
2019-02-03T20:28:59.440Z,4.05
2019-02-03T20:31:26.958Z,3.60
2019-02-03T20:33:57.765Z,4.80
2019-02-03T20:36:25.690Z,2.90
2019-02-03T20:38:52.878Z,3.47
2019-02-03T20:41:20.291Z,3.12
2019-02-03T20:43:48.408Z,3.58
2019-02-03T20:46:15.924Z,4.37
2019-02-03T20:48:43.293Z,3.77
2019-02-03T20:51:11.419Z,4.05
2019-02-03T20:53:39.884Z,3.12
2019-02-03T20:56:08.269Z,3.22
2019-02-03T20:58:35.832Z,3.87
2019-02-03T21:01:04.210Z,4.55
2019-02-03T21:03:32.194Z,3.22
2019-02-03T21:05:59.438Z,4.08
2019-02-03T21:08:27.059Z,2.70
2019-02-03T21:10:55.045Z,3.20
2019-02-03T21:13:21.717Z,2.58
2019-02-03T21:15:49.558Z,2.83
2019-02-03T21:18:17.171Z,2.83
2019-02-03T21:20:45.553Z,3.27
2019-02-03T21:23:13.280Z,2.80
2019-02-03T21:25:41.469Z,3.27
2019-02-03T21:28:09.813Z,2.98
2019-02-03T21:30:38.004Z,2.40
2019-02-03T21:33:06.190Z,2.65
2019-02-03T21:35:33.311Z,3.22
2019-02-03T21:38:01.843Z,2.55
2019-02-03T21:40:30.769Z,2.30
2019-02-03T21:42:58.638Z,2.00
2019-02-03T21:45:26.735Z,2.70
2019-02-03T21:47:54.508Z,2.58
2019-02-03T21:50:24.062Z,3.77
2019-02-03T21:52:54.057Z,2.40
2019-02-03T21:55:22.295Z,2.55
2019-02-03T21:57:50.893Z,3.22
2019-02-03T22:00:23.418Z,2.87
2019-02-03T22:02:50.915Z,3.42
2019-02-03T22:05:17.681Z,2.85
2019-02-03T22:07:45.226Z,2.92
2019-02-03T22:10:15.353Z,2.37
2019-02-03T22:12:42.247Z,3.10
2019-02-03T22:15:09.321Z,3.62
2019-02-03T22:17:37.475Z,2.55
2019-02-03T22:20:07.281Z,3.40
2019-02-03T22:22:35.076Z,3.45
2019-02-03T22:25:03.594Z,3.45
2019-02-03T22:27:31.543Z,2.50
2019-02-03T22:29:58.554Z,2.60
2019-02-03T22:32:26.403Z,2.42
2019-02-03T22:34:53.466Z,3.08
2019-02-03T22:37:21.407Z,3.58
2019-02-03T22:39:48.185Z,3.05
2019-02-03T22:42:15.395Z,2.72
2019-02-03T22:44:42.894Z,2.95
2019-02-03T22:47:09.573Z,3.35
2019-02-03T22:49:36.861Z,3.30
2019-02-03T22:52:04.640Z,3.70
2019-02-03T22:54:31.414Z,3.33
2019-02-03T22:56:58.836Z,3.37
2019-02-03T22:59:26.279Z,3.10
2019-02-03T23:01:53.062Z,2.87
2019-02-03T23:04:23.677Z,3.35
2019-02-03T23:06:51.020Z,2.55
2019-02-03T23:09:22.642Z,3.25
2019-02-03T23:11:49.938Z,3.42
2019-02-03T23:14:17.397Z,3.85
2019-02-03T23:16:44.397Z,4.20
2019-02-03T23:19:11.717Z,3.25
2019-02-03T23:21:39.265Z,3.67
2019-02-03T23:24:06.025Z,3.77
2019-02-03T23:26:33.184Z,4.25
2019-02-03T23:28:59.997Z,2.60
2019-02-03T23:31:26.860Z,3.75
2019-02-03T23:33:53.757Z,3.60
2019-02-03T23:36:21.297Z,4.30
2019-02-03T23:38:48.626Z,4.20
2019-02-03T23:41:16.374Z,4.53
2019-02-03T23:43:43.584Z,3.37
2019-02-03T23:46:11.151Z,3.72
2019-02-03T23:48:38.068Z,3.98
2019-02-03T23:51:04.853Z,4.80
2019-02-03T23:53:33.132Z,5.03
2019-02-03T23:56:00.466Z,3.83
2019-02-03T23:58:27.129Z,4.78
